Time;durP1;ratioP1;P1;durP2;ratioP2;P2;SDS_P1;SDS_P2;PMS_P1;PMS_P2;Temp;Humidity;BMP_temperature;BMP_pressure;BME280_temperature;BME280_humidity;BME280_pressure;Samples;Min_cycle;Max_cycle;Signal;HPM_P1;HPM_P2
2022/06/10 00:01:48;;;;;;;4.63;1.70;;;;;;;14.72;100.00;101092.66;5229141;28;20108;-72
2022/06/10 00:04:19;;;;;;;2.70;1.45;;;;;;;14.73;100.00;101104.06;5228813;28;20033;-72
2022/06/10 00:06:49;;;;;;;2.78;1.40;;;;;;;14.81;100.00;101099.31;5233383;28;20104;-72
2022/06/10 00:09:19;;;;;;;2.78;1.50;;;;;;;14.55;100.00;101103.06;5232173;28;20379;-72
2022/06/10 00:11:50;;;;;;;2.60;1.38;;;;;;;14.35;100.00;101104.84;5233440;28;20075;-72
2022/06/10 00:14:20;;;;;;;4.40;1.30;;;;;;;14.08;100.00;101103.34;5233522;28;20100;-73
2022/06/10 00:16:51;;;;;;;5.75;1.63;;;;;;;14.08;100.00;101105.97;5233148;28;20021;-73
2022/06/10 00:19:21;;;;;;;3.63;1.50;;;;;;;14.18;100.00;101109.97;5233336;28;20040;-73
2022/06/10 00:21:51;;;;;;;2.92;1.40;;;;;;;14.19;100.00;101103.78;5233717;28;20184;-73
2022/06/10 00:24:22;;;;;;;3.03;1.40;;;;;;;14.19;100.00;101111.66;5232871;28;20035;-73
2022/06/10 00:26:52;;;;;;;2.63;1.33;;;;;;;14.23;100.00;101113.28;5215060;28;20056;-73
2022/06/10 00:29:22;;;;;;;5.05;1.77;;;;;;;14.17;100.00;101109.13;5232381;28;20477;-73
2022/06/10 00:31:53;;;;;;;3.97;1.60;;;;;;;14.24;100.00;101115.81;5233704;28;20078;-74
2022/06/10 00:34:23;;;;;;;4.38;1.55;;;;;;;14.26;100.00;101118.41;5232550;28;20279;-73
2022/06/10 00:36:53;;;;;;;4.85;1.85;;;;;;;14.27;100.00;101118.31;5233469;28;20203;-73
2022/06/10 00:39:24;;;;;;;3.05;1.58;;;;;;;14.31;100.00;101121.69;5231262;28;20512;-73
2022/06/10 00:41:54;;;;;;;3.80;1.67;;;;;;;14.35;100.00;101108.34;5233188;28;20099;-73
2022/06/10 00:44:48;;;;;;;3.65;1.65;;;;;;;14.40;100.00;101126.56;5216133;28;20496;-73
2022/06/10 00:47:35;;;;;;;2.75;1.48;;;;;;;14.35;100.00;101123.25;5203850;28;20050;-73
2022/06/10 00:50:14;;;;;;;2.25;1.40;;;;;;;14.44;100.00;101130.78;5226978;28;20063;-73
2022/06/10 00:52:52;;;;;;;4.10;1.77;;;;;;;14.30;100.00;101133.13;5232210;28;20036;-73
2022/06/10 00:55:28;;;;;;;3.95;1.40;;;;;;;14.27;100.00;101136.72;5231652;28;20029;-73
2022/06/10 00:58:03;;;;;;;3.15;1.63;;;;;;;14.06;100.00;101131.47;5232765;28;20047;-73
2022/06/10 01:00:36;;;;;;;3.13;1.40;;;;;;;13.96;100.00;101146.78;5230492;28;20070;-73
2022/06/10 01:03:06;;;;;;;3.70;1.58;;;;;;;13.82;100.00;101148.22;5230419;28;20032;-73
2022/06/10 01:05:37;;;;;;;5.10;1.60;;;;;;;13.77;100.00;101147.53;5234433;28;20482;-73
2022/06/10 01:08:11;;;;;;;4.00;1.60;;;;;;;13.82;100.00;101145.59;5229290;28;20395;-72
2022/06/10 01:11:05;;;;;;;4.93;1.60;;;;;;;13.81;100.00;101138.63;5230142;28;20390;-73
2022/06/10 01:14:01;;;;;;;2.20;1.30;;;;;;;13.66;100.00;101161.09;5201553;28;20037;-73
2022/06/10 01:16:50;;;;;;;;;;;;;;;13.58;100.00;101154.44;5230414;28;20031;-71
2022/06/10 01:19:40;;;;;;;3.55;1.13;;;;;;;13.64;100.00;101155.06;5229856;28;20412;-73
2022/06/10 01:22:30;;;;;;;3.15;1.77;;;;;;;13.72;100.00;101160.84;5230732;28;20017;-72
2022/06/10 01:25:37;;;;;;;2.05;1.38;;;;;;;13.67;100.00;101172.44;5230118;28;20150;-73
2022/06/10 01:28:29;;;;;;;4.80;1.40;;;;;;;13.60;100.00;101165.75;5226554;28;20103;-73
2022/06/10 01:31:18;;;;;;;2.08;1.40;;;;;;;13.57;100.00;101165.84;5230458;28;20124;-73
2022/06/10 01:34:04;;;;;;;3.92;1.70;;;;;;;13.50;100.00;101167.00;5229886;28;20124;-73
2022/06/10 01:36:49;;;;;;;;;;;;;;;13.48;100.00;101168.81;5225688;28;20036;-73
2022/06/10 01:39:48;;;;;;;4.78;1.63;;;;;;;13.35;100.00;101167.56;5230977;28;19916;-72
2022/06/10 01:42:40;;;;;;;5.55;1.70;;;;;;;13.12;100.00;101185.94;5221087;28;20479;-73
2022/06/10 01:45:55;;;;;;;5.18;1.70;;;;;;;13.03;100.00;101175.78;5230838;28;20039;-73
2022/06/10 01:48:43;;;;;;;4.72;1.98;;;;;;;13.18;100.00;101178.69;5228503;28;20028;-73
2022/06/10 01:51:27;;;;;;;3.08;1.40;;;;;;;13.26;100.00;101178.41;5209780;28;20208;-73
2022/06/10 01:54:01;;;;;;;5.43;1.50;;;;;;;13.42;100.00;101179.56;5230259;28;20023;-73
2022/06/10 01:56:38;;;;;;;4.32;1.60;;;;;;;13.42;100.00;101172.53;5232689;28;20020;-70
2022/06/10 01:59:11;;;;;;;3.17;1.48;;;;;;;13.39;100.00;101167.41;5229639;28;20095;-72
2022/06/10 02:01:48;;;;;;;2.15;1.33;;;;;;;13.32;100.00;101178.19;5232845;28;20024;-73
2022/06/10 02:04:23;;;;;;;2.72;1.42;;;;;;;13.29;100.00;101176.56;5231215;28;20071;-73
2022/06/10 02:06:59;;;;;;;2.83;1.45;;;;;;;13.10;100.00;101178.09;5229354;28;20214;-73
2022/06/10 02:09:57;;;;;;;3.08;1.60;;;;;;;12.97;100.00;101175.16;5228536;28;20033;-73
2022/06/10 02:12:33;;;;;;;3.33;1.58;;;;;;;12.83;100.00;101177.34;5221858;28;20122;-73
2022/06/10 02:15:11;;;;;;;5.57;1.77;;;;;;;12.98;100.00;101182.94;5229316;28;20269;-73
2022/06/10 02:17:54;;;;;;;7.00;1.90;;;;;;;12.80;100.00;101188.81;5226886;28;20641;-73
2022/06/10 02:20:27;;;;;;;4.90;2.13;;;;;;;12.60;100.00;101191.25;5229832;28;20033;-73
2022/06/10 02:23:02;;;;;;;5.80;1.98;;;;;;;12.62;100.00;101188.59;5232741;28;20017;-73
2022/06/10 02:25:41;;;;;;;5.43;1.90;;;;;;;12.51;100.00;101193.34;5211067;28;20021;-73
2022/06/10 02:28:15;;;;;;;4.15;2.00;;;;;;;12.41;100.00;101195.41;5226488;28;20477;-72
2022/06/10 02:31:09;;;;;;;5.57;1.73;;;;;;;12.45;100.00;101198.81;5231513;28;20020;-73
2022/06/10 02:33:39;;;;;;;2.90;1.80;;;;;;;12.45;100.00;101189.16;5226512;28;20683;-74
2022/06/10 02:36:15;;;;;;;3.67;1.73;;;;;;;12.54;100.00;101204.59;5232163;28;20033;-73
2022/06/10 02:39:04;;;;;;;4.00;1.60;;;;;;;12.79;100.00;101200.22;5230120;28;20520;-73
2022/06/10 02:41:50;;;;;;;4.68;1.60;;;;;;;12.88;100.00;101206.91;5228407;28;20367;-73
2022/06/10 02:44:39;;;;;;;2.28;1.80;;;;;;;12.62;100.00;101212.19;5225195;28;20065;-73
2022/06/10 02:47:35;;;;;;;4.35;1.55;;;;;;;12.59;100.00;101210.53;5201139;28;20044;-73
2022/06/10 02:50:07;;;;;;;2.20;1.42;;;;;;;12.53;100.00;101221.22;5228183;28;20041;-73
2022/06/10 02:52:38;;;;;;;2.42;1.40;;;;;;;12.53;100.00;101225.59;5214393;28;20043;-73
2022/06/10 02:55:35;;;;;;;3.30;1.65;;;;;;;12.13;100.00;101226.03;5229459;28;20151;-73
2022/06/10 03:01:20;;;;;;;3.53;1.80;;;;;;;12.37;100.00;101224.38;5230141;28;20428;-73
2022/06/10 03:04:03;;;;;;;4.30;1.60;;;;;;;12.58;100.00;101228.91;5229476;28;20060;-73
2022/06/10 03:07:21;;;;;;;3.10;1.48;;;;;;;12.53;100.00;101225.59;5209617;28;20029;-73
2022/06/10 03:10:13;;;;;;;5.78;1.50;;;;;;;12.38;100.00;101228.72;5229629;28;20032;-73
2022/06/10 03:12:58;;;;;;;4.65;1.70;;;;;;;12.24;100.00;101236.16;5227278;28;20029;-73
2022/06/10 03:16:00;;;;;;;3.42;1.70;;;;;;;12.12;100.00;101241.81;5208650;28;20710;-73
2022/06/10 03:18:42;;;;;;;4.45;1.50;;;;;;;12.07;100.00;101241.94;5227786;28;20021;-73
2022/06/10 03:21:39;;;;;;;4.40;1.60;;;;;;;11.93;100.00;101238.88;5229403;28;20047;-73
2022/06/10 03:24:30;;;;;;;3.72;1.90;;;;;;;12.12;100.00;101241.81;5190850;28;20041;-73
2022/06/10 03:27:24;;;;;;;5.57;1.83;;;;;;;12.28;100.00;101243.06;5232031;28;20107;-73
2022/06/10 03:30:07;;;;;;;4.03;2.30;;;;;;;11.99;100.00;101238.69;5235076;28;20028;-73
2022/06/10 03:32:42;;;;;;;4.78;2.30;;;;;;;11.91;100.00;101240.69;5228572;28;20410;-73
2022/06/10 03:35:21;;;;;;;3.22;2.00;;;;;;;11.80;100.00;101239.31;5235551;28;20024;-72
2022/06/10 03:37:52;;;;;;;4.40;2.20;;;;;;;11.72;100.00;101247.41;5234431;28;20029;-74
2022/06/10 03:40:26;;;;;;;4.78;2.00;;;;;;;11.84;100.00;101241.81;5233139;28;20093;-73
2022/06/10 03:42:58;;;;;;;3.70;2.00;;;;;;;11.92;100.00;101255.50;5234819;28;20020;-72
2022/06/10 03:45:56;;;;;;;4.32;2.03;;;;;;;11.83;100.00;101253.19;5226378;28;20052;-73
2022/06/10 03:48:31;;;;;;;4.40;2.15;;;;;;;11.89;100.00;101254.75;5211953;28;20387;-73
2022/06/10 03:51:02;;;;;;;3.05;1.90;;;;;;;11.92;100.00;101252.06;5232242;28;20444;-73
2022/06/10 03:53:32;;;;;;;4.93;2.28;;;;;;;12.08;100.00;101264.63;5234649;28;20025;-73
2022/06/10 03:56:02;;;;;;;5.32;2.30;;;;;;;12.12;100.00;101268.03;5232285;28;20025;-72
2022/06/10 03:58:33;;;;;;;6.57;2.50;;;;;;;12.17;100.00;101269.59;5235837;28;20048;-73
2022/06/10 04:01:04;;;;;;;6.88;2.50;;;;;;;12.08;100.00;101269.88;5231529;28;20017;-73
2022/06/10 04:03:34;;;;;;;5.43;2.42;;;;;;;12.06;100.00;101266.44;5209592;28;20031;-72
2022/06/10 04:06:04;;;;;;;5.28;2.45;;;;;;;11.96;100.00;101262.38;5235442;28;20021;-72
2022/06/10 04:08:35;;;;;;;6.60;2.60;;;;;;;11.99;100.00;101267.50;5230871;28;20104;-73
2022/06/10 04:11:05;;;;;;;5.40;1.98;;;;;;;12.15;100.00;101274.00;5234750;28;20048;-73
2022/06/10 04:13:35;;;;;;;8.02;2.30;;;;;;;12.19;100.00;101277.41;5231318;28;20032;-73
2022/06/10 04:16:06;;;;;;;4.57;2.22;;;;;;;12.35;100.00;101281.25;5224816;28;20082;-73
2022/06/10 04:18:37;;;;;;;4.63;2.28;;;;;;;12.48;100.00;101277.34;5230220;28;20032;-73
2022/06/10 04:21:08;;;;;;;6.97;2.20;;;;;;;12.60;100.00;101284.81;5230935;28;20429;-73
2022/06/10 04:23:38;;;;;;;6.70;2.13;;;;;;;12.42;100.00;101281.00;5234197;28;20078;-73
2022/06/10 04:26:08;;;;;;;6.47;2.35;;;;;;;12.45;100.00;101278.28;5231151;28;20044;-73
2022/06/10 04:28:39;;;;;;;7.75;2.17;;;;;;;12.55;100.00;101291.97;5233445;28;20048;-73
2022/06/10 04:31:09;;;;;;;7.47;2.58;;;;;;;12.60;100.00;101292.69;5230410;28;20036;-74
2022/06/10 04:33:40;;;;;;;8.23;2.40;;;;;;;12.83;100.00;101280.50;5229067;28;20401;-73
2022/06/10 04:36:15;;;;;;;6.47;2.40;;;;;;;13.22;100.00;101287.06;5231853;28;20017;-72
2022/06/10 04:38:45;;;;;;;5.57;2.58;;;;;;;13.95;100.00;101291.38;5233204;28;20028;-74
2022/06/10 04:41:16;;;;;;;5.55;2.28;;;;;;;14.74;100.00;101279.44;5232125;28;20388;-74
2022/06/10 04:43:46;;;;;;;6.22;2.10;;;;;;;15.20;100.00;101288.81;5231504;28;20068;-75
2022/06/10 04:46:38;;;;;;;6.95;1.88;;;;;;;17.37;92.30;101288.06;5206684;28;20025;-72
2022/06/10 04:49:10;;;;;;;8.70;1.58;;;;;;;17.28;90.17;101288.53;5227753;28;20032;-73
2022/06/10 04:51:40;;;;;;;4.47;1.50;;;;;;;18.05;88.19;101290.53;5233619;28;20029;-73
2022/06/10 04:54:11;;;;;;;4.30;1.25;;;;;;;19.78;80.93;101290.81;5231456;28;20028;-73
2022/06/10 04:56:42;;;;;;;3.45;1.20;;;;;;;20.15;79.56;101292.91;5233113;28;20067;-74
2022/06/10 04:59:13;;;;;;;3.92;1.35;;;;;;;20.25;78.41;101294.03;5231566;28;20048;-74
2022/06/10 05:01:43;;;;;;;7.38;1.33;;;;;;;20.55;78.89;101291.22;5233070;28;20031;-74
2022/06/10 05:04:13;;;;;;;3.53;1.10;;;;;;;21.11;79.02;101294.50;5231134;28;20035;-73
2022/06/10 05:06:44;;;;;;;3.33;1.10;;;;;;;23.22;70.61;101290.56;5232609;28;20393;-74
2022/06/10 05:09:14;;;;;;;5.05;1.30;;;;;;;22.26;71.49;101296.09;5213511;28;20031;-73
2022/06/10 05:11:44;;;;;;;3.78;1.25;;;;;;;24.27;66.34;101282.19;5231311;28;20039;-74
2022/06/10 05:14:15;;;;;;;2.97;0.88;;;;;;;25.63;63.92;101283.13;5229183;28;20032;-74
2022/06/10 05:16:45;;;;;;;3.85;1.27;;;;;;;26.49;60.25;101293.22;5220887;28;20053;-74
2022/06/10 05:19:15;;;;;;;3.73;1.10;;;;;;;28.17;58.31;101282.56;5230540;28;20514;-74
2022/06/10 05:21:46;;;;;;;6.30;1.42;;;;;;;28.67;55.60;101284.66;5232062;28;20346;-73
2022/06/10 05:24:16;;;;;;;6.72;1.30;;;;;;;26.35;60.73;101298.09;5232063;28;20029;-74
2022/06/10 05:26:47;;;;;;;4.00;1.30;;;;;;;26.19;61.48;101293.22;5231968;28;20254;-74
2022/06/10 05:29:17;;;;;;;3.80;1.30;;;;;;;24.98;64.32;101293.19;5231205;28;20027;-74
2022/06/10 05:31:47;;;;;;;4.72;1.30;;;;;;;27.07;60.77;101284.25;5230437;28;20033;-74
2022/06/10 05:37:06;;;;;;;3.58;1.23;;;;;;;25.53;64.86;101296.44;5226638;28;20107;-73
2022/06/10 05:39:37;;;;;;;3.78;1.20;;;;;;;27.12;61.33;101285.50;5230921;28;20108;-73
2022/06/10 05:42:09;;;;;;;7.25;1.50;;;;;;;24.50;67.85;101299.00;5215046;28;20052;-73
2022/06/10 05:44:46;;;;;;;5.47;1.58;;;;;;;26.33;64.83;101300.06;5209190;28;20059;-74
2022/06/10 05:47:22;;;;;;;6.40;2.58;;;;;;;23.88;70.75;101301.38;5223670;28;20064;-73
2022/06/10 05:49:56;;;;;;;6.20;2.60;;;;;;;24.42;66.75;101306.81;5231031;28;20078;-73
2022/06/10 05:52:29;;;;;;;10.23;2.92;;;;;;;22.85;71.67;101310.28;5231921;28;20453;-72
2022/06/10 05:55:03;;;;;;;7.88;3.05;;;;;;;21.97;75.53;101310.66;5228776;28;20070;-73
2022/06/10 05:57:34;;;;;;;8.13;2.80;;;;;;;22.17;75.85;101310.06;5232732;28;20031;-73
2022/06/10 06:00:08;;;;;;;9.45;2.70;;;;;;;21.84;76.63;101312.47;5224850;28;20017;-73
2022/06/10 06:02:39;;;;;;;7.47;3.10;;;;;;;21.68;77.67;101315.34;5227019;28;20371;-73
2022/06/10 06:05:10;;;;;;;12.32;3.00;;;;;;;22.12;74.89;101310.41;5233323;28;20039;-73
2022/06/10 06:07:43;;;;;;;6.47;2.75;;;;;;;21.65;77.42;101312.03;5212242;28;20552;-73
2022/06/10 06:10:16;;;;;;;9.30;2.83;;;;;;;21.62;76.71;101312.22;5231783;28;20028;-73
2022/06/10 06:12:46;;;;;;;7.75;3.13;;;;;;;21.39;76.98;101312.97;5230903;28;20104;-73
2022/06/10 06:15:17;;;;;;;7.82;2.78;;;;;;;22.43;76.54;101309.94;5225387;28;20029;-73
2022/06/10 06:17:52;;;;;;;6.65;2.85;;;;;;;23.07;72.24;101312.19;5225860;28;20024;-73
2022/06/10 06:20:23;;;;;;;7.05;2.80;;;;;;;23.50;69.45;101310.69;5231828;28;20023;-73
2022/06/10 06:22:54;;;;;;;10.90;2.90;;;;;;;23.13;69.46;101317.97;5231452;28;20021;-73
2022/06/10 06:25:24;;;;;;;11.05;2.70;;;;;;;23.72;69.03;101316.03;5231648;28;20055;-74
2022/06/10 06:27:55;;;;;;;5.85;2.47;;;;;;;23.11;70.92;101308.34;5230422;28;20506;-74
2022/06/10 06:30:32;;;;;;;7.30;2.85;;;;;;;22.14;75.03;101316.50;5231917;28;20052;-73
2022/06/10 06:33:05;;;;;;;7.40;2.80;;;;;;;23.25;71.99;101309.03;5229410;28;20482;-74
2022/06/10 06:35:38;;;;;;;7.95;2.80;;;;;;;22.89;69.64;101313.59;5225113;28;20059;-73
2022/06/10 06:38:09;;;;;;;9.98;2.45;;;;;;;23.83;67.97;101319.59;5208549;28;20024;-74
2022/06/10 06:40:42;;;;;;;7.63;2.58;;;;;;;24.73;67.56;101314.06;5223097;28;20056;-74
2022/06/10 06:43:12;;;;;;;9.07;2.45;;;;;;;25.01;67.30;101319.69;5222938;28;20521;-73
2022/06/10 06:45:43;;;;;;;10.38;2.67;;;;;;;24.07;68.72;101322.16;5205437;28;20025;-74
2022/06/10 06:48:14;;;;;;;8.85;2.90;;;;;;;24.35;68.37;101321.66;5223978;28;20025;-73
2022/06/10 06:50:48;;;;;;;7.57;3.15;;;;;;;23.68;68.80;101326.09;5229815;28;20024;-74
2022/06/10 06:53:19;;;;;;;7.68;3.05;;;;;;;23.41;71.63;101330.91;5228818;28;20513;-74
2022/06/10 06:55:49;;;;;;;7.35;3.10;;;;;;;23.28;72.98;101327.47;5231998;28;20096;-73
2022/06/10 06:58:20;;;;;;;8.73;3.28;;;;;;;24.77;67.94;101313.72;5232954;28;20312;-74
2022/06/10 07:00:50;;;;;;;8.88;3.05;;;;;;;24.48;67.98;101331.25;5234292;28;20487;-74
2022/06/10 07:03:20;;;;;;;7.63;3.08;;;;;;;26.12;64.71;101318.91;5234737;28;20040;-74
2022/06/10 07:05:52;;;;;;;7.35;2.47;;;;;;;25.20;66.54;101322.53;5217069;28;20158;-74
2022/06/10 07:08:30;;;;;;;6.80;2.90;;;;;;;25.62;65.03;101326.91;5234325;28;20025;-72
2022/06/10 07:11:03;;;;;;;10.77;3.10;;;;;;;25.32;66.51;101330.38;5215508;28;20081;-74
2022/06/10 07:13:34;;;;;;;7.47;2.50;;;;;;;26.21;64.00;101325.28;5231855;28;20079;-72
2022/06/10 07:16:05;;;;;;;7.68;3.15;;;;;;;25.93;65.54;101334.91;5225298;28;20078;-71
2022/06/10 07:18:37;;;;;;;8.77;3.15;;;;;;;26.13;63.03;101327.78;5229553;28;20025;-74
2022/06/10 07:21:07;;;;;;;8.75;2.90;;;;;;;26.86;62.38;101321.94;5234292;28;20417;-74
2022/06/10 07:23:37;;;;;;;6.20;2.75;;;;;;;27.58;59.75;101315.13;5230563;28;20025;-74
2022/06/10 07:26:08;;;;;;;8.68;3.38;;;;;;;26.06;63.13;101324.81;5233916;28;20541;-74
2022/06/10 07:28:38;;;;;;;6.88;3.20;;;;;;;26.42;62.62;101320.69;5230293;28;20394;-74
2022/06/10 07:31:09;;;;;;;8.23;3.10;;;;;;;25.78;63.32;101322.78;5233985;28;20028;-74
2022/06/10 07:33:39;;;;;;;9.25;2.70;;;;;;;27.61;60.03;101314.84;5214319;28;20356;-74
2022/06/10 07:36:10;;;;;;;7.18;2.15;;;;;;;27.47;59.04;101323.34;5235279;28;20046;-74
2022/06/10 07:38:41;;;;;;;5.82;1.98;;;;;;;26.45;60.70;101329.31;5232631;28;20375;-74
2022/06/10 07:44:00;;;;;;;7.50;1.83;;;;;;;28.69;52.13;101320.38;5232366;28;20032;-74
2022/06/10 07:46:31;;;;;;;5.25;1.33;;;;;;;29.58;52.55;101321.06;5225048;28;20470;-74
2022/06/10 07:49:01;;;;;;;4.38;1.48;;;;;;;28.85;53.21;101317.81;5231761;28;20135;-74
2022/06/10 07:51:31;;;;;;;6.53;1.70;;;;;;;29.50;52.18;101322.84;5235715;28;20028;-74
2022/06/10 07:54:02;;;;;;;4.43;1.20;;;;;;;29.37;49.48;101325.09;5232720;28;20021;-74
2022/06/10 07:56:32;;;;;;;4.07;1.30;;;;;;;28.83;50.76;101327.91;5235284;28;20012;-73
2022/06/10 07:59:03;;;;;;;7.38;1.73;;;;;;;30.00;48.81;101318.44;5231737;28;20052;-74
2022/06/10 08:01:34;;;;;;;4.65;1.38;;;;;;;30.73;48.05;101323.19;5217242;28;20016;-73
2022/06/10 08:04:08;;;;;;;5.53;1.35;;;;;;;30.73;50.43;101318.63;5226932;28;20024;-74
2022/06/10 08:06:43;;;;;;;4.10;1.33;;;;;;;30.93;49.34;101318.19;5234572;28;20533;-74
2022/06/10 08:09:17;;;;;;;6.45;1.30;;;;;;;29.64;47.92;101324.97;5232579;28;20025;-74
2022/06/10 08:11:48;;;;;;;3.90;1.30;;;;;;;30.09;47.13;101325.63;5230291;28;20063;-74
2022/06/10 08:14:19;;;;;;;5.90;1.30;;;;;;;28.72;50.22;101319.22;5230401;28;20045;-74
2022/06/10 08:16:53;;;;;;;4.28;1.10;;;;;;;29.85;49.09;101322.75;5205814;28;20029;-75
2022/06/10 08:19:23;;;;;;;4.10;1.30;;;;;;;27.54;52.60;101329.00;5232959;28;20033;-74
2022/06/10 08:24:42;;;;;;;5.13;1.38;;;;;;;29.48;50.50;101316.78;5243718;28;20119;-75
2022/06/10 08:27:13;;;;;;;5.90;1.27;;;;;;;29.58;49.12;101309.44;5247309;28;20099;-75
2022/06/10 08:29:44;;;;;;;5.03;1.30;;;;;;;27.93;50.13;101315.34;5247052;28;20024;-75
2022/06/10 08:32:14;;;;;;;4.80;1.38;;;;;;;29.23;47.66;101309.47;5224967;28;20294;-75
2022/06/10 08:34:44;;;;;;;5.18;1.30;;;;;;;29.00;48.94;101303.72;5246064;28;20113;-74
2022/06/10 08:37:15;;;;;;;3.67;1.17;;;;;;;30.66;47.35;101309.53;5222272;28;20028;-73
2022/06/10 08:39:45;;;;;;;5.20;1.50;;;;;;;30.34;47.33;101319.31;5243283;28;20033;-73
2022/06/10 08:42:40;;;;;;;5.97;1.50;;;;;;;29.57;49.68;101318.53;5226624;28;20489;-74
2022/06/10 08:45:19;;;;;;;4.60;1.20;;;;;;;30.35;47.42;101311.06;5226939;28;20274;-73
2022/06/10 08:48:08;;;;;;;7.68;1.33;;;;;;;29.78;50.09;101309.06;5232626;28;20024;-75
2022/06/10 08:50:48;;;;;;;6.55;1.30;;;;;;;30.00;49.57;101313.06;5247537;28;20028;-74
2022/06/10 08:53:25;;;;;;;7.07;1.50;;;;;;;29.78;47.95;101310.91;5229435;28;20068;-74
2022/06/10 08:56:08;;;;;;;2.88;0.98;;;;;;;29.52;48.35;101307.38;5226618;28;20051;-74
2022/06/10 08:59:16;;;;;;;4.25;1.27;;;;;;;30.40;50.26;101307.91;5188681;28;20044;-75
2022/06/10 09:02:05;;;;;;;5.47;1.48;;;;;;;30.50;47.69;101305.88;5205732;28;20026;-74
2022/06/10 09:04:41;;;;;;;6.40;1.45;;;;;;;29.26;47.71;101311.84;5200823;28;20045;-75
2022/06/10 09:07:20;;;;;;;6.47;1.52;;;;;;;30.02;46.71;101308.34;5231851;28;20371;-75
2022/06/10 09:09:51;;;;;;;3.95;1.48;;;;;;;29.26;48.30;101310.00;5240539;28;20155;-75
2022/06/10 09:12:36;;;;;;;5.97;1.40;;;;;;;30.15;47.98;101292.59;5211918;28;20524;-74
2022/06/10 09:15:10;;;;;;;5.65;1.42;;;;;;;30.72;47.87;101289.94;5226675;28;20031;-75
2022/06/10 09:17:47;;;;;;;4.53;1.45;;;;;;;31.79;45.24;101295.88;5224903;28;20500;-74
2022/06/10 09:20:26;;;;;;;4.78;1.17;;;;;;;31.50;46.30;101298.25;5225878;28;20070;-72
2022/06/10 09:22:59;;;;;;;4.07;1.15;;;;;;;30.67;46.63;101288.75;5245870;28;20028;-75
2022/06/10 09:25:59;;;;;;;5.88;1.65;;;;;;;31.16;46.34;101289.50;5242788;28;20115;-75
2022/06/10 09:28:29;;;;;;;5.05;1.20;;;;;;;31.35;46.01;101296.44;5244224;28;20497;-73
2022/06/10 09:31:12;;;;;;;5.32;1.33;;;;;;;31.31;45.66;101295.94;5246275;28;20028;-75
2022/06/10 09:33:48;;;;;;;5.45;1.50;;;;;;;29.32;49.01;101301.31;5242009;28;20036;-75
2022/06/10 09:36:50;;;;;;;8.95;1.70;;;;;;;29.54;47.96;101302.69;5234092;28;20028;-74
2022/06/10 09:43:10;;;;;;;5.28;1.42;;;;;;;28.56;49.55;101303.75;5226232;28;20055;-74
2022/06/10 09:46:01;;;;;;;7.73;1.80;;;;;;;29.33;49.63;101305.69;5221246;28;20044;-75
2022/06/10 09:48:46;;;;;;;4.70;1.60;;;;;;;29.51;49.17;101295.75;5229002;28;20108;-75
2022/06/10 09:51:16;;;;;;;4.03;1.42;;;;;;;30.83;48.21;101290.47;5225509;28;20040;-74
2022/06/10 09:54:07;;;;;;;7.30;1.73;;;;;;;29.02;47.02;101292.78;5207737;28;20033;-74
2022/06/10 09:56:44;;;;;;;5.90;1.52;;;;;;;29.27;49.66;101294.69;5225425;28;20263;-74
2022/06/10 09:59:32;;;;;;;7.45;1.85;;;;;;;30.07;47.70;101293.41;5226082;28;20017;-75
2022/06/10 10:02:15;;;;;;;4.45;1.60;;;;;;;29.90;48.37;101288.91;5225873;28;20394;-74
2022/06/10 10:05:23;;;;;;;6.20;1.40;;;;;;;30.05;47.76;101281.09;5235070;28;20115;-74
2022/06/10 10:08:07;;;;;;;6.70;1.77;;;;;;;29.65;48.29;101288.94;5219418;28;20021;-74
2022/06/10 10:10:45;;;;;;;6.90;1.80;;;;;;;29.69;50.30;101284.91;5228232;28;20020;-75
2022/06/10 10:13:58;;;;;;;5.47;1.45;;;;;;;29.49;48.96;101278.03;5224148;28;20033;-75
2022/06/10 10:16:31;;;;;;;4.50;1.25;;;;;;;28.60;50.01;101278.22;5175973;28;20042;-75
2022/06/10 10:19:07;;;;;;;7.25;1.60;;;;;;;28.10;51.30;101279.63;5169901;28;20442;-74
2022/06/10 10:21:38;;;;;;;7.15;1.48;;;;;;;28.05;50.56;101268.47;5217676;28;20123;-74
2022/06/10 10:24:16;;;;;;;4.53;1.40;;;;;;;28.33;51.09;101280.91;5246534;28;20215;-74
2022/06/10 10:26:50;;;;;;;5.97;1.55;;;;;;;27.29;51.12;101276.72;5246039;28;20059;-74
2022/06/10 10:29:29;;;;;;;7.50;1.48;;;;;;;27.02;52.90;101270.38;5217627;28;20460;-75
2022/06/10 10:32:12;;;;;;;4.50;1.70;;;;;;;26.68;53.59;101276.31;5236323;28;20552;-74
2022/06/10 10:34:47;;;;;;;5.22;1.65;;;;;;;25.91;54.50;101277.91;5225206;28;20024;-74
2022/06/10 10:37:30;;;;;;;6.10;1.35;;;;;;;25.88;54.71;101278.19;5248684;28;20016;-74
2022/06/10 10:40:19;;;;;;;3.60;1.33;;;;;;;26.14;53.69;101278.56;5245788;28;20032;-74
2022/06/10 10:43:02;;;;;;;7.18;1.60;;;;;;;26.41;54.54;101282.31;5224108;28;20021;-73
2022/06/10 10:45:37;;;;;;;5.57;1.45;;;;;;;26.25;52.88;101276.63;5231799;28;20043;-74
2022/06/10 10:48:20;;;;;;;6.72;1.30;;;;;;;26.87;53.98;101266.41;5227868;28;20041;-74
2022/06/10 10:50:58;;;;;;;4.75;1.30;;;;;;;27.17;55.69;101266.28;5228747;28;20017;-74
2022/06/10 10:53:41;;;;;;;3.85;1.10;;;;;;;26.70;52.86;101275.16;5211253;28;20033;-75
2022/06/10 10:56:13;;;;;;;5.47;1.05;;;;;;;25.67;53.54;101279.19;5228577;28;20387;-72
2022/06/10 10:58:49;;;;;;;5.72;1.48;;;;;;;25.11;55.31;101275.97;5227304;28;20025;-73
2022/06/10 11:01:54;;;;;;;5.95;1.50;;;;;;;25.16;54.67;101278.25;5228166;28;20497;-75
2022/06/10 11:04:29;;;;;;;3.53;1.20;;;;;;;25.44;57.86;101272.25;5202551;28;20524;-74
2022/06/10 11:07:04;;;;;;;4.43;1.50;;;;;;;25.52;54.98;101270.63;5235787;28;20126;-74
2022/06/10 11:09:44;;;;;;;9.05;1.65;;;;;;;25.33;55.30;101275.03;5248171;28;20034;-74
2022/06/10 11:12:18;;;;;;;5.38;1.50;;;;;;;25.51;57.93;101263.56;5230267;28;20025;-74
2022/06/10 11:14:58;;;;;;;5.82;1.42;;;;;;;25.88;56.63;101266.63;5227870;28;20029;-72
2022/06/10 11:17:30;;;;;;;3.42;0.93;;;;;;;25.96;54.06;101261.41;5228118;28;20033;-73
2022/06/10 11:20:25;;;;;;;3.10;1.10;;;;;;;26.64;53.78;101254.28;5228158;28;20047;-74
2022/06/10 11:23:24;;;;;;;6.07;1.20;;;;;;;26.79;51.30;101255.56;5227592;28;20074;-73
2022/06/10 11:26:12;;;;;;;5.65;1.05;;;;;;;26.98;54.32;101258.22;5222207;28;20300;-74
2022/06/10 11:28:44;;;;;;;5.68;1.50;;;;;;;26.75;52.56;101252.28;5229041;28;20025;-73
2022/06/10 11:31:26;;;;;;;3.38;1.20;;;;;;;26.85;53.80;101249.63;5236423;28;20023;-72
2022/06/10 11:34:00;;;;;;;5.53;1.38;;;;;;;27.07;54.01;101249.34;5235799;28;20012;-74
2022/06/10 11:36:45;;;;;;;6.65;1.25;;;;;;;26.07;51.80;101256.81;5231085;28;20060;-73
2022/06/10 11:39:23;;;;;;;4.38;1.40;;;;;;;26.04;53.31;101251.72;5229582;28;20104;-72
2022/06/10 11:42:20;;;;;;;4.22;1.23;;;;;;;25.89;54.07;101247.72;5231196;28;20055;-73
2022/06/10 11:45:00;;;;;;;6.45;1.65;;;;;;;26.13;55.12;101256.25;5231749;28;20032;-73
2022/06/10 11:47:49;;;;;;;5.40;1.45;;;;;;;25.57;53.56;101247.00;5229616;28;20151;-73
2022/06/10 11:50:31;;;;;;;5.18;1.30;;;;;;;25.40;56.06;101244.06;5227902;28;20505;-72
2022/06/10 11:53:14;;;;;;;4.57;1.20;;;;;;;25.28;55.75;101243.28;5237000;28;20383;-72
2022/06/10 11:55:50;;;;;;;5.65;0.98;;;;;;;25.45;57.10;101241.84;5212773;28;20490;-72
2022/06/10 12:01:29;;;;;;;6.82;1.20;;;;;;;26.29;55.01;101232.47;5231503;28;20082;-73
2022/06/10 12:04:17;;;;;;;2.83;0.98;;;;;;;27.04;55.70;101226.31;5214311;28;20173;-73
2022/06/10 12:06:53;;;;;;;2.97;1.02;;;;;;;27.17;52.76;101224.19;5230942;28;20028;-72
2022/06/10 12:09:30;;;;;;;3.00;0.90;;;;;;;27.26;53.07;101217.13;5233417;28;20059;-74
2022/06/10 12:12:23;;;;;;;3.10;1.08;;;;;;;26.69;53.91;101221.66;5234499;28;20034;-74
2022/06/10 12:14:56;;;;;;;4.40;0.90;;;;;;;26.68;52.50;101220.81;5232487;28;20468;-73
2022/06/10 12:17:38;;;;;;;2.13;0.90;;;;;;;26.36;51.33;101219.34;5231835;28;20075;-73
2022/06/10 12:20:27;;;;;;;3.13;0.95;;;;;;;26.07;51.39;101230.03;5221006;28;20039;-73
2022/06/10 12:23:03;;;;;;;3.60;0.85;;;;;;;25.93;52.70;101222.34;5232182;28;20028;-73
2022/06/10 12:25:50;;;;;;;3.42;0.90;;;;;;;26.06;53.17;101227.47;5217260;28;20016;-73
2022/06/10 12:28:51;;;;;;;3.17;0.90;;;;;;;26.27;52.49;101212.13;5230777;28;20036;-74